createdAt,value
2022-09-04T00:02:22.065Z,17.11
2022-09-04T00:05:02.692Z,17.07
2022-09-04T00:07:53.598Z,17.07
2022-09-04T00:10:29.855Z,17.06
2022-09-04T00:13:21.558Z,17.06
2022-09-04T00:16:07.588Z,17.06
2022-09-04T00:18:42.808Z,17.02
2022-09-04T00:21:35.610Z,16.99
2022-09-04T00:24:04.554Z,16.95
2022-09-04T00:26:50.741Z,16.92
2022-09-04T00:29:20.992Z,16.93
2022-09-04T00:31:56.314Z,16.94
2022-09-04T00:34:53.034Z,16.91
2022-09-04T00:37:24.230Z,16.86
2022-09-04T00:40:00.713Z,16.83
2022-09-04T00:43:06.785Z,16.75
2022-09-04T00:45:51.218Z,16.69
2022-09-04T00:48:46.322Z,16.74
2022-09-04T00:51:47.763Z,16.73
2022-09-04T00:54:23.920Z,16.67
2022-09-04T00:57:19.219Z,16.52
2022-09-04T01:00:09.009Z,16.50
2022-09-04T01:03:01.126Z,16.50
2022-09-04T01:05:45.660Z,16.48
2022-09-04T01:08:27.466Z,16.43
2022-09-04T01:11:33.083Z,16.49
2022-09-04T01:14:44.988Z,16.42
2022-09-04T01:17:32.317Z,16.33
2022-09-04T01:20:14.937Z,16.34
2022-09-04T01:23:07.223Z,16.35
2022-09-04T01:26:12.008Z,16.34
2022-09-04T01:29:13.535Z,16.26
2022-09-04T01:31:47.307Z,16.30
2022-09-04T01:34:42.029Z,16.19
2022-09-04T01:38:11.166Z,16.16
2022-09-04T01:41:00.308Z,16.15
2022-09-04T01:43:27.611Z,16.13
2022-09-04T01:46:22.303Z,16.07
2022-09-04T01:49:19.383Z,16.10
2022-09-04T01:52:08.144Z,16.15
2022-09-04T01:54:56.985Z,16.16
2022-09-04T01:57:47.311Z,16.18
2022-09-04T02:00:17.437Z,16.15
2022-09-04T02:03:10.934Z,16.11
2022-09-04T02:05:45.755Z,16.14
2022-09-04T02:08:31.218Z,16.09
2022-09-04T02:11:15.864Z,16.03
2022-09-04T02:14:09.287Z,15.97
2022-09-04T02:17:18.328Z,15.99
2022-09-04T02:19:59.780Z,16.03
2022-09-04T02:22:44.945Z,16.03
2022-09-04T02:25:31.759Z,15.98
2022-09-04T02:28:08.257Z,15.90
2022-09-04T02:30:54.558Z,15.87
2022-09-04T02:33:59.472Z,15.85
2022-09-04T02:37:01.258Z,15.81
2022-09-04T02:39:56.254Z,15.81
2022-09-04T02:42:27.826Z,15.83
2022-09-04T02:45:12.828Z,15.81
2022-09-04T02:47:56.240Z,15.76
2022-09-04T02:51:01.128Z,15.73
2022-09-04T02:53:52.678Z,15.73
2022-09-04T02:56:47.883Z,15.75
2022-09-04T02:59:36.935Z,15.76
2022-09-04T03:02:06.246Z,15.76
2022-09-04T03:04:50.060Z,15.69
2022-09-04T03:07:39.744Z,15.70
2022-09-04T03:10:11.958Z,15.64
2022-09-04T03:13:03.928Z,15.65
2022-09-04T03:15:46.461Z,15.59
2022-09-04T03:18:51.464Z,15.57
2022-09-04T03:21:27.994Z,15.57
2022-09-04T03:24:00.134Z,15.56
2022-09-04T03:26:31.855Z,15.50
2022-09-04T03:29:10.144Z,15.47
2022-09-04T03:31:56.153Z,15.50
2022-09-04T03:34:36.719Z,15.54
2022-09-04T03:37:28.784Z,15.56
2022-09-04T03:39:58.746Z,15.53
2022-09-04T03:42:40.572Z,15.49
2022-09-04T03:45:10.826Z,15.41
2022-09-04T03:47:47.795Z,15.35
2022-09-04T03:50:20.983Z,15.30
2022-09-04T03:52:50.688Z,15.28
2022-09-04T03:55:25.304Z,15.28
2022-09-04T03:58:10.954Z,15.24
2022-09-04T04:00:57.333Z,15.18
2022-09-04T04:03:31.986Z,15.10
2022-09-04T04:06:23.291Z,15.05
2022-09-04T04:09:04.415Z,15.01
2022-09-04T04:11:45.161Z,14.97
2022-09-04T04:14:30.935Z,14.95
2022-09-04T04:17:06.094Z,14.95
2022-09-04T04:20:14.851Z,14.94
2022-09-04T04:23:37.549Z,14.88
2022-09-04T04:26:31.586Z,14.78
2022-09-04T04:29:38.799Z,14.79
2022-09-04T04:32:15.057Z,14.78
2022-09-04T04:34:58.466Z,14.79
2022-09-04T04:37:37.055Z,14.80
2022-09-04T04:40:15.675Z,14.81
2022-09-04T04:42:55.052Z,14.80
2022-09-04T04:45:50.561Z,14.73
2022-09-04T04:48:40.483Z,14.76
2022-09-04T04:51:40.686Z,14.75
2022-09-04T04:54:30.144Z,14.68
2022-09-04T04:57:28.042Z,14.66
2022-09-04T05:00:22.866Z,14.69
2022-09-04T05:03:32.318Z,14.69
2022-09-04T05:06:14.771Z,14.60
2022-09-04T05:09:10.059Z,14.56
2022-09-04T05:11:55.060Z,14.50
2022-09-04T05:15:00.749Z,14.49
2022-09-04T05:17:40.660Z,14.48
2022-09-04T05:20:32.436Z,14.49
2022-09-04T05:23:12.906Z,14.50
2022-09-04T05:25:52.609Z,14.57
2022-09-04T05:28:46.957Z,14.60
2022-09-04T05:31:20.185Z,14.60
2022-09-04T05:34:02.109Z,14.58
2022-09-04T05:36:45.935Z,14.61
2022-09-04T05:39:32.922Z,14.59
2022-09-04T05:42:37.875Z,14.67
2022-09-04T05:45:24.209Z,14.67
2022-09-04T05:48:19.340Z,14.69
2022-09-04T05:50:46.596Z,14.67
2022-09-04T05:53:51.339Z,14.76
2022-09-04T05:56:21.355Z,14.83
2022-09-04T05:59:06.058Z,14.84
2022-09-04T06:01:52.476Z,14.81
2022-09-04T06:04:44.247Z,14.85
2022-09-04T06:07:14.698Z,14.89
2022-09-04T06:09:48.324Z,14.96
2022-09-04T06:12:36.353Z,15.02
2022-09-04T06:15:25.462Z,15.06
2022-09-04T06:18:12.952Z,15.07
2022-09-04T06:20:51.333Z,15.11
2022-09-04T06:23:37.319Z,15.18
2022-09-04T06:26:23.086Z,15.30
2022-09-04T06:29:05.806Z,15.41
2022-09-04T06:31:36.642Z,15.46
2022-09-04T06:34:10.985Z,15.53
2022-09-04T06:36:56.338Z,15.56
2022-09-04T06:39:45.203Z,15.58
2022-09-04T06:42:26.479Z,15.58
2022-09-04T06:45:26.947Z,15.56
2022-09-04T06:48:23.019Z,15.59
2022-09-04T06:50:56.999Z,15.65
2022-09-04T06:53:39.301Z,15.70
2022-09-04T06:56:35.781Z,15.77
2022-09-04T06:59:27.815Z,15.83
2022-09-04T07:02:08.139Z,15.91
2022-09-04T07:04:51.194Z,15.91
2022-09-04T07:07:27.048Z,15.91
2022-09-04T07:10:10.218Z,15.99
2022-09-04T07:13:08.760Z,16.07
2022-09-04T07:16:11.999Z,16.16
2022-09-04T07:18:52.214Z,16.22
2022-09-04T07:21:35.631Z,16.26
2022-09-04T07:24:09.106Z,16.32
2022-09-04T07:27:15.709Z,16.38
2022-09-04T07:29:48.679Z,16.45
2022-09-04T07:32:22.630Z,16.53
2022-09-04T07:35:00.892Z,16.56
2022-09-04T07:37:39.957Z,16.63
2022-09-04T07:40:14.980Z,16.74
2022-09-04T07:42:51.123Z,16.82
2022-09-04T07:45:38.416Z,16.88
2022-09-04T07:48:35.774Z,16.99
2022-09-04T07:51:25.944Z,17.06
2022-09-04T07:54:22.627Z,17.13
2022-09-04T07:56:59.066Z,17.21
2022-09-04T07:59:51.116Z,17.30
2022-09-04T08:02:56.550Z,17.40
2022-09-04T08:05:31.443Z,17.53
2022-09-04T08:08:08.324Z,17.58
2022-09-04T08:11:13.461Z,17.63
2022-09-04T08:14:02.711Z,17.69
2022-09-04T08:16:53.417Z,17.79
2022-09-04T08:19:41.726Z,17.92
2022-09-04T08:22:13.404Z,18.02
2022-09-04T08:24:53.801Z,18.12
2022-09-04T08:27:44.473Z,18.21
2022-09-04T08:30:14.269Z,18.29
2022-09-04T08:32:53.176Z,18.38
2022-09-04T08:35:55.040Z,18.47
2022-09-04T08:38:40.520Z,18.56
2022-09-04T08:41:13.334Z,18.62
2022-09-04T08:44:09.481Z,18.70
2022-09-04T08:47:17.779Z,18.80
2022-09-04T08:50:12.859Z,18.91
2022-09-04T08:52:45.981Z,18.99
2022-09-04T08:55:50.615Z,19.08
2022-09-04T08:58:38.693Z,19.19
2022-09-04T09:01:30.501Z,19.26
2022-09-04T09:04:14.971Z,19.36
2022-09-04T09:07:06.888Z,19.42
2022-09-04T09:09:47.810Z,19.52
2022-09-04T09:12:40.890Z,19.62
2022-09-04T09:15:13.995Z,19.70
2022-09-04T09:18:03.509Z,19.82
2022-09-04T09:20:54.340Z,19.88
2022-09-04T09:23:37.994Z,19.97
2022-09-04T09:26:26.630Z,20.04
2022-09-04T09:28:56.607Z,20.12
2022-09-04T09:31:46.099Z,20.20
2022-09-04T09:34:53.845Z,20.25
2022-09-04T09:37:34.156Z,20.32
2022-09-04T09:40:13.654Z,20.35
2022-09-04T09:42:59.958Z,20.45
2022-09-04T09:45:54.505Z,20.53
2022-09-04T09:48:54.967Z,20.60
2022-09-04T09:52:00.808Z,20.65
2022-09-04T09:54:52.508Z,20.72
2022-09-04T09:57:41.171Z,20.80
2022-09-04T10:00:15.253Z,20.88
2022-09-04T10:03:20.248Z,20.93
2022-09-04T10:06:13.092Z,21.01
2022-09-04T10:09:09.231Z,21.07
2022-09-04T10:11:59.346Z,21.13
2022-09-04T10:14:50.849Z,21.21
2022-09-04T10:17:48.803Z,21.30
2022-09-04T10:20:40.317Z,21.40
2022-09-04T10:23:28.779Z,21.47
2022-09-04T10:26:14.146Z,21.55
2022-09-04T10:29:09.938Z,21.65
2022-09-04T10:31:37.048Z,21.72
2022-09-04T10:34:38.309Z,21.80
2022-09-04T10:37:14.374Z,21.91
2022-09-04T10:40:27.805Z,22.03
2022-09-04T10:43:22.643Z,22.14
2022-09-04T10:46:01.115Z,22.22
2022-09-04T10:49:03.855Z,22.29
2022-09-04T10:51:56.423Z,22.38
2022-09-04T10:54:57.135Z,22.50
2022-09-04T10:57:43.302Z,22.60
2022-09-04T11:00:19.059Z,22.74
2022-09-04T11:03:04.593Z,22.85
2022-09-04T11:05:32.217Z,22.95
2022-09-04T11:08:25.929Z,23.05
2022-09-04T11:11:03.414Z,23.12
2022-09-04T11:14:08.262Z,23.24
2022-09-04T11:16:57.364Z,23.35
2022-09-04T11:20:04.242Z,23.51
2022-09-04T11:22:55.798Z,23.66
2022-09-04T11:25:38.956Z,23.80
2022-09-04T11:28:44.277Z,23.94
2022-09-04T11:31:29.418Z,24.02
2022-09-04T11:34:13.870Z,24.16
2022-09-04T11:37:15.489Z,24.29
2022-09-04T11:39:48.165Z,24.41
2022-09-04T11:42:35.606Z,24.55
2022-09-04T11:45:41.406Z,24.79
2022-09-04T11:48:37.702Z,24.94
2022-09-04T11:51:34.348Z,25.07
2022-09-04T11:54:30.714Z,25.22
2022-09-04T11:57:23.107Z,25.33
2022-09-04T12:00:17.368Z,25.52
2022-09-04T12:03:11.729Z,25.73
2022-09-04T12:05:54.824Z,25.76
2022-09-04T12:08:46.984Z,25.80
2022-09-04T12:11:41.782Z,26.03
2022-09-04T12:14:40.600Z,26.11
2022-09-04T12:17:26.123Z,26.14
2022-09-04T12:20:05.085Z,26.33
2022-09-04T12:23:02.654Z,26.46
2022-09-04T12:25:35.400Z,26.76
2022-09-04T12:28:26.697Z,27.01
2022-09-04T12:31:08.614Z,27.27
2022-09-04T12:34:08.673Z,27.57
2022-09-04T12:37:01.340Z,27.72
2022-09-04T12:39:57.350Z,27.97
2022-09-04T12:42:46.039Z,28.29
2022-09-04T12:45:24.956Z,28.54
2022-09-04T12:48:20.197Z,28.77
2022-09-04T12:51:16.581Z,28.96
2022-09-04T12:53:54.323Z,29.20
2022-09-04T12:56:26.206Z,29.52
2022-09-04T12:59:25.757Z,29.39
2022-09-04T13:02:21.343Z,29.50
2022-09-04T13:05:02.436Z,29.96
2022-09-04T13:07:50.288Z,29.92
2022-09-04T13:10:43.921Z,30.26
2022-09-04T13:13:23.588Z,30.49
2022-09-04T13:16:29.517Z,30.66
2022-09-04T13:19:13.763Z,31.01
2022-09-04T13:21:44.254Z,31.37
2022-09-04T13:24:35.735Z,31.60
2022-09-04T13:27:26.370Z,31.37
2022-09-04T13:30:03.712Z,31.57
2022-09-04T13:32:30.964Z,31.85
2022-09-04T13:35:03.874Z,31.97
2022-09-04T13:38:01.093Z,32.08
2022-09-04T13:40:55.861Z,32.20
2022-09-04T13:43:41.165Z,32.25
2022-09-04T13:46:12.776Z,32.31
2022-09-04T13:48:44.300Z,32.57
2022-09-04T13:51:17.541Z,32.42
2022-09-04T13:54:12.304Z,32.32
2022-09-04T13:56:58.563Z,32.14
2022-09-04T13:59:25.796Z,32.00
2022-09-04T14:01:55.939Z,32.33
2022-09-04T14:04:26.465Z,32.69
2022-09-04T14:07:06.943Z,32.94
2022-09-04T14:09:54.456Z,32.93
2022-09-04T14:12:39.831Z,32.96
2022-09-04T14:15:38.016Z,32.85
2022-09-04T14:18:45.345Z,33.14
2022-09-04T14:21:32.757Z,33.09
2022-09-04T14:24:18.310Z,32.60
2022-09-04T14:27:33.283Z,31.93
2022-09-04T14:30:11.239Z,31.92
2022-09-04T14:32:41.916Z,31.96
2022-09-04T14:35:34.265Z,31.97
2022-09-04T14:38:29.246Z,31.85
2022-09-04T14:41:18.616Z,31.67
2022-09-04T14:43:45.717Z,31.82
2022-09-04T14:46:32.695Z,32.02
2022-09-04T14:49:09.129Z,32.33
2022-09-04T14:51:43.542Z,32.61
2022-09-04T14:54:15.746Z,32.96
2022-09-04T14:56:51.063Z,33.31
2022-09-04T14:59:24.956Z,33.09
2022-09-04T15:02:46.038Z,33.21
2022-09-04T15:05:13.287Z,33.23
2022-09-04T15:07:43.627Z,33.26
2022-09-04T15:10:29.932Z,33.36
2022-09-04T15:13:29.095Z,33.42
2022-09-04T15:16:29.599Z,33.56
2022-09-04T15:19:28.447Z,33.53
2022-09-04T15:22:15.697Z,33.48
2022-09-04T15:24:58.366Z,33.28
2022-09-04T15:27:46.228Z,33.36
2022-09-04T15:30:24.561Z,33.30
2022-09-04T15:33:12.428Z,33.41
2022-09-04T15:35:40.652Z,33.16
2022-09-04T15:38:21.067Z,32.89
2022-09-04T15:41:15.143Z,33.11
2022-09-04T15:43:49.811Z,33.36
2022-09-04T15:46:25.626Z,33.07
2022-09-04T15:49:26.367Z,32.82
2022-09-04T15:51:58.141Z,32.76
2022-09-04T15:54:32.961Z,32.68
2022-09-04T15:57:17.750Z,32.32
2022-09-04T15:59:44.785Z,32.10
2022-09-04T16:02:36.353Z,31.97
2022-09-04T16:05:41.553Z,31.52
2022-09-04T16:08:25.872Z,31.26
2022-09-04T16:11:16.592Z,31.17
2022-09-04T16:14:03.875Z,31.03
2022-09-04T16:16:42.192Z,30.35
2022-09-04T16:19:24.382Z,29.91
2022-09-04T16:22:08.025Z,29.65
2022-09-04T16:24:35.928Z,29.44
2022-09-04T16:27:07.152Z,29.16
2022-09-04T16:29:51.081Z,28.86
2022-09-04T16:32:21.353Z,28.64
2022-09-04T16:35:09.363Z,28.23
2022-09-04T16:37:42.440Z,28.09
2022-09-04T16:40:14.515Z,27.97
2022-09-04T16:42:49.996Z,27.83
2022-09-04T16:45:22.607Z,27.58
2022-09-04T16:47:59.087Z,27.45
2022-09-04T16:50:57.705Z,27.31
2022-09-04T16:53:39.816Z,27.01
2022-09-04T16:56:45.558Z,27.00
2022-09-04T16:59:20.196Z,26.87
2022-09-04T17:02:01.445Z,26.63
2022-09-04T17:04:40.301Z,26.56
2022-09-04T17:07:08.740Z,26.29
2022-09-04T17:09:55.730Z,26.07
2022-09-04T17:12:47.490Z,25.94
2022-09-04T17:15:33.972Z,25.91
2022-09-04T17:18:06.465Z,25.87
2022-09-04T17:21:39.739Z,25.70
2022-09-04T17:29:04.938Z,25.40
2022-09-04T17:29:08.420Z,25.26
2022-09-04T17:29:48.810Z,25.10
2022-09-04T17:33:46.116Z,25.01
2022-09-04T17:40:38.844Z,24.91
2022-09-04T17:40:53.296Z,24.85
2022-09-04T17:41:56.976Z,24.75
2022-09-04T17:44:46.740Z,24.88
2022-09-04T17:47:26.406Z,24.79
2022-09-04T17:49:54.107Z,24.65
2022-09-04T17:52:28.217Z,24.43
2022-09-04T17:55:13.657Z,24.15
2022-09-04T17:57:46.989Z,24.06
2022-09-04T18:00:26.008Z,23.87
2022-09-04T18:02:56.354Z,23.82
2022-09-04T18:05:28.151Z,23.78
2022-09-04T18:08:33.003Z,23.79
2022-09-04T18:11:18.462Z,23.66
2022-09-04T18:13:54.297Z,23.54
2022-09-04T18:16:26.038Z,23.45
2022-09-04T18:18:55.902Z,23.40
2022-09-04T18:21:29.766Z,23.21
2022-09-04T18:24:00.833Z,23.09
2022-09-04T18:26:40.137Z,22.91
2022-09-04T18:30:10.055Z,22.91
2022-09-04T18:37:11.131Z,22.83
2022-09-04T18:37:24.932Z,22.73
2022-09-04T18:38:19.701Z,22.65
2022-09-04T18:41:43.359Z,22.61
2022-09-04T18:50:21.734Z,22.50
2022-09-04T18:50:32.334Z,22.22
2022-09-04T18:50:45.517Z,22.33
2022-09-04T18:52:19.835Z,22.08
2022-09-04T18:54:54.084Z,21.89
2022-09-04T18:57:27.260Z,21.84
2022-09-04T19:00:08.453Z,21.76
2022-09-04T19:02:54.147Z,21.68
2022-09-04T19:05:22.328Z,21.69
2022-09-04T19:07:59.844Z,21.73
2022-09-04T19:10:30.297Z,21.67
2022-09-04T19:13:08.302Z,21.57
2022-09-04T19:15:49.383Z,21.48
2022-09-04T19:18:26.510Z,21.44
2022-09-04T19:21:14.486Z,21.40
2022-09-04T19:23:45.114Z,21.24
2022-09-04T19:26:27.254Z,21.15
2022-09-04T19:29:00.628Z,21.11
2022-09-04T19:31:35.283Z,21.19
2022-09-04T19:34:38.306Z,21.22
2022-09-04T19:39:09.992Z,21.23
2022-09-04T19:44:22.903Z,21.11
2022-09-04T19:46:13.994Z,21.05
2022-09-04T19:46:29.350Z,21.01
2022-09-04T19:53:21.541Z,21.01
2022-09-04T19:53:22.120Z,20.78
2022-09-04T19:55:47.303Z,20.74
2022-09-04T19:58:18.715Z,20.71
2022-09-04T20:00:58.141Z,20.60
2022-09-04T20:03:33.431Z,20.46
2022-09-04T20:06:21.532Z,20.37
2022-09-04T20:08:54.512Z,20.36
2022-09-04T20:11:45.884Z,20.34
2022-09-04T20:14:29.124Z,20.21
2022-09-04T20:17:01.182Z,20.16
2022-09-04T20:19:38.861Z,20.14
2022-09-04T20:22:27.342Z,20.08
2022-09-04T20:25:06.734Z,20.13
2022-09-04T20:27:47.969Z,20.10
2022-09-04T20:30:24.713Z,20.04
2022-09-04T20:33:01.771Z,19.90
2022-09-04T20:35:35.481Z,19.77
2022-09-04T20:38:46.061Z,19.76
2022-09-04T20:41:32.341Z,19.90
2022-09-04T20:44:25.472Z,19.96
2022-09-04T20:52:42.420Z,19.81
2022-09-04T20:52:55.658Z,19.68
2022-09-04T20:53:23.148Z,19.62
2022-09-04T20:55:59.176Z,19.58
2022-09-04T21:03:09.328Z,19.48
2022-09-04T21:03:09.890Z,19.50
2022-09-04T21:04:42.082Z,19.49
2022-09-04T21:07:35.309Z,19.49
2022-09-04T21:10:11.513Z,19.47
2022-09-04T21:13:13.815Z,19.49
2022-09-04T21:15:51.703Z,19.43
2022-09-04T21:19:28.288Z,19.40
2022-09-04T21:21:59.698Z,19.31
2022-09-04T21:24:51.797Z,19.25
2022-09-04T21:27:23.818Z,19.25
2022-09-04T21:30:03.194Z,19.27
2022-09-04T21:32:45.276Z,19.32
2022-09-04T21:35:22.720Z,19.21
2022-09-04T21:37:49.842Z,19.08
2022-09-04T21:40:50.921Z,19.05
2022-09-04T21:43:35.788Z,18.99
2022-09-04T21:46:51.746Z,18.99
2022-09-04T21:49:26.799Z,19.03
2022-09-04T21:52:00.362Z,19.02
2022-09-04T22:00:16.073Z,18.90
2022-09-04T22:02:30.862Z,18.77
2022-09-04T22:02:35.904Z,18.76
2022-09-04T22:04:42.767Z,18.77
2022-09-04T22:12:10.408Z,18.75
2022-09-04T22:13:40.856Z,18.74
2022-09-04T22:13:58.411Z,18.69
2022-09-04T22:16:57.310Z,18.69
2022-09-04T22:19:43.050Z,18.69
2022-09-04T22:22:10.023Z,18.62
2022-09-04T22:25:00.502Z,18.56
2022-09-04T22:28:19.086Z,18.50
2022-09-04T22:30:55.255Z,18.51
2022-09-04T22:34:14.106Z,18.46
2022-09-04T22:37:00.715Z,18.46
2022-09-04T22:39:57.779Z,18.39
2022-09-04T22:42:37.189Z,18.40
2022-09-04T22:45:28.672Z,18.31
2022-09-04T22:48:23.416Z,18.19
2022-09-04T22:50:50.962Z,18.10
2022-09-04T22:53:35.275Z,18.06
2022-09-04T22:56:24.736Z,18.10
2022-09-04T22:59:27.684Z,18.03
2022-09-04T23:02:16.287Z,17.99
2022-09-04T23:04:47.071Z,18.07
2022-09-04T23:12:06.458Z,18.06
2022-09-04T23:13:55.007Z,18.08
2022-09-04T23:13:56.231Z,17.96
2022-09-04T23:15:59.894Z,17.88
2022-09-04T23:21:36.045Z,17.87
2022-09-04T23:26:44.644Z,17.80
2022-09-04T23:26:46.252Z,17.67
2022-09-04T23:27:54.785Z,17.64
2022-09-04T23:30:25.131Z,17.64
2022-09-04T23:33:27.876Z,17.55
2022-09-04T23:36:04.841Z,17.57
2022-09-04T23:38:39.761Z,17.60
2022-09-04T23:41:23.553Z,17.62
2022-09-04T23:44:25.638Z,17.62
2022-09-04T23:47:46.918Z,17.58
2022-09-04T23:50:23.785Z,17.59
2022-09-04T23:53:25.606Z,17.58
2022-09-04T23:55:57.737Z,17.55
2022-09-04T23:59:33.009Z,17.53
